Time;durP1;ratioP1;P1;durP2;ratioP2;P2;SDS_P1;SDS_P2;PMS_P1;PMS_P2;Temp;Humidity;BMP_temperature;BMP_pressure;BME280_temperature;BME280_humidity;BME280_pressure;Samples;Min_cycle;Max_cycle;Signal;HPM_P1;HPM_P2
2022/01/31 00:00:07;;;;;;;19.23;6.20;;;;;;;;;;5087650;28;20370;-80
2022/01/31 00:02:35;;;;;;;25.40;6.50;;;;;;;;;;5099693;28;20055;-80
2022/01/31 00:05:01;;;;;;;12.55;4.82;;;;;;;;;;5079623;28;20066;-81
2022/01/31 00:07:28;;;;;;;18.75;6.03;;;;;;;;;;5099317;28;20057;-80
2022/01/31 00:09:54;;;;;;;13.90;4.72;;;;;;;;;;5090685;27;20050;-80
2022/01/31 00:12:23;;;;;;;17.25;6.88;;;;;;;;;;5091438;28;20093;-79
2022/01/31 00:14:50;;;;;;;14.55;5.10;;;;;;;;;;5091790;28;20031;-79
2022/01/31 00:17:17;;;;;;;21.00;7.95;;;;;;;;;;5106213;28;20312;-79
2022/01/31 00:19:43;;;;;;;23.55;7.82;;;;;;;;;;5075551;28;20131;-79
2022/01/31 00:22:10;;;;;;;22.73;8.18;;;;;;;;;;5096385;28;20047;-80
2022/01/31 00:24:36;;;;;;;21.83;7.35;;;;;;;;;;5098957;28;20046;-82
2022/01/31 00:27:04;;;;;;;21.73;8.80;;;3.90;99.90;;;;;;5100036;28;20051;-82
2022/01/31 00:29:31;;;;;;;25.85;12.32;;;;;;;;;;5080948;28;20061;-82
2022/01/31 00:31:57;;;;;;;26.50;12.15;;;;;;;;;;5081630;28;20492;-82
2022/01/31 00:34:23;;;;;;;23.50;8.50;;;;;;;;;;5098006;28;20519;-82
2022/01/31 00:36:49;;;;;;;18.10;8.50;;;;;;;;;;5094000;28;20126;-82
2022/01/31 00:39:15;;;;;;;20.60;9.45;;;;;;;;;;5093503;28;20104;-82
2022/01/31 00:41:41;;;;;;;29.10;9.48;;;;;;;;;;5098092;28;20119;-82
2022/01/31 00:46:44;;;;;;;18.58;8.25;;;;;;;;;;5100412;27;20043;-82
2022/01/31 00:49:17;;;;;;;24.05;9.43;;;;;;;;;;5105788;27;20121;-82
2022/01/31 00:51:43;;;;;;;20.17;8.00;;;;;;;;;;5082875;27;20142;-82
2022/01/31 00:54:10;;;;;;;23.77;8.63;;;;;;;;;;5098443;27;20036;-83
2022/01/31 00:56:36;;;;;;;24.38;9.13;;;;;;;;;;5094976;27;20043;-82
2022/01/31 00:59:02;;;;;;;25.02;9.90;;;;;;;;;;5096239;27;20061;-82
2022/01/31 01:01:28;;;;;;;22.60;9.02;;;;;;;;;;5076263;27;20065;-82
2022/01/31 01:03:54;;;;;;;15.43;7.63;;;;;;;;;;5083729;27;20160;-81
2022/01/31 01:06:21;;;;;;;20.17;8.40;;;;;;;;;;5084130;27;20071;-82
2022/01/31 01:08:47;;;;;;;23.45;8.65;;;;;;;;;;5101144;27;20092;-81
2022/01/31 01:11:13;;;;;;;21.90;9.57;;;;;;;;;;5102718;27;20081;-82
2022/01/31 01:13:39;;;;;;;20.75;8.57;;;;;;;;;;5086008;27;20396;-82
2022/01/31 01:16:05;;;;;;;16.38;9.00;;;;;;;;;;5104679;27;20039;-82
2022/01/31 01:18:32;;;;;;;22.90;9.60;;;;;;;;;;5100846;27;20077;-81
2022/01/31 01:20:58;;;;;;;12.05;6.65;;;;;;;;;;5100038;27;20049;-81
2022/01/31 01:23:24;;;;;;;14.02;7.53;;;;;;;;;;5076302;27;20054;-81
2022/01/31 01:25:51;;;;;;;14.10;7.45;;;;;;;;;;5082208;27;20347;-81
2022/01/31 01:28:19;;;;;;;14.18;7.22;;;;;;;;;;5081258;27;20047;-82
2022/01/31 01:30:47;;;;;;;12.25;5.13;;;;;;;;;;5087454;27;20042;-82
2022/01/31 01:33:19;;;;;;;11.27;3.72;;;;;;;;;;5082809;27;20311;-82
2022/01/31 01:35:48;;;;;;;7.32;3.38;;;;;;;;;;5101942;27;20180;-82
2022/01/31 01:38:16;;;;;;;10.35;3.88;;;;;;;;;;5103577;27;20540;-82
2022/01/31 01:40:42;;;;;;;9.98;3.63;;;;;;;;;;5084162;28;20039;-82
2022/01/31 01:43:09;;;;;;;7.03;3.33;;;;;;;;;;5097909;27;20094;-82
2022/01/31 01:45:36;;;;;;;12.48;4.38;;;;;;;;;;5103602;27;20038;-82
2022/01/31 01:48:02;;;;;;;6.40;3.10;;;;;;;;;;5099786;27;20043;-83
2022/01/31 01:50:28;;;;;;;4.10;2.28;;;;;;;;;;5100076;27;20121;-81
2022/01/31 01:52:54;;;;;;;6.57;2.45;;;;;;;;;;5100074;27;20134;-81
2022/01/31 01:55:21;;;;;;;6.45;2.20;;;;;;;;;;5096072;27;20785;-82
2022/01/31 01:57:47;;;;;;;6.53;2.05;;;;;;;;;;5080299;27;20045;-84
2022/01/31 02:00:24;;;;;;;4.40;1.42;;;;;;;;;;5093114;28;20053;-83
2022/01/31 02:02:50;;;;;;;5.55;1.83;;;;;;;;;;5097462;27;20066;-83
2022/01/31 02:05:17;;;;;;;6.00;1.75;;;;;;;;;;5098467;27;20138;-84
2022/01/31 02:07:43;;;;;;;8.32;3.00;;;;;;;;;;5101564;27;20039;-83
2022/01/31 02:10:09;;;;;;;4.15;1.77;;;;;;;;;;5099254;27;20031;-83
2022/01/31 02:12:43;;;;;;;6.13;1.95;;;;;;;;;;5100191;27;20043;-83
2022/01/31 02:15:11;;;;;;;5.63;1.88;;;;;;;;;;5099515;27;20594;-83
2022/01/31 02:17:38;;;;;;;5.47;2.53;;;;;;;;;;5100568;27;20035;-82
2022/01/31 02:20:05;;;;;;;4.05;1.75;;;;;;;;;;5101331;27;20046;-83
2022/01/31 02:22:31;;;;;;;6.13;2.10;;;;;;;;;;5086569;27;21186;-84
2022/01/31 02:24:57;;;;;;;4.82;1.40;;;;;;;;;;5096783;28;20193;-83
2022/01/31 02:27:27;;;;;;;8.10;1.63;;;;;;;;;;5079667;27;20039;-84
2022/01/31 02:29:53;;;;;;;4.53;2.10;;;;;;;;;;5096159;28;20039;-82
2022/01/31 02:32:22;;;;;;;8.25;2.63;;;;;;;;;;5098447;27;20096;-83
2022/01/31 02:34:48;;;;;;;8.80;2.55;;;;;;;;;;5097974;27;20036;-84
2022/01/31 02:37:14;;;;;;;11.15;2.35;;;;;;;;;;5098967;27;20046;-85
2022/01/31 02:39:40;;;;;;;9.15;2.33;;;;;;;;;;5092414;28;20039;-85
2022/01/31 02:42:07;;;;;;;10.68;2.30;;;;;;;;;;5080699;27;20093;-86
2022/01/31 02:44:33;;;;;;;16.95;3.50;;;;;;;;;;5083074;27;20097;-86
2022/01/31 02:47:00;;;;;;;27.77;5.32;;;;;;;;;;5078462;27;20050;-85
2022/01/31 02:49:34;;;;;;;20.45;4.15;;;;;;;;;;5080173;27;20537;-86
2022/01/31 02:52:02;;;;;;;32.00;5.30;;;;;;;;;;5100104;27;20095;-87
2022/01/31 02:54:32;;;;;;;24.17;4.22;;;;;;;;;;5099935;27;20050;-87
2022/01/31 02:56:58;;;;;;;25.35;5.43;;;;;;;;;;5073769;28;20394;-86
2022/01/31 02:59:24;;;;;;;23.70;3.38;;;;;;;;;;5096781;28;20035;-86
2022/01/31 03:01:50;;;;;;;19.83;4.53;;;;;;;;;;5095132;27;20105;-86
2022/01/31 03:04:16;;;;;;;26.25;4.20;;;;;;;;;;5101727;27;20039;-85
2022/01/31 03:06:49;;;;;;;22.92;3.53;;;;;;;;;;5080562;28;20043;-85
2022/01/31 03:09:15;;;;;;;16.17;3.22;;;;;;;;;;5076919;27;20079;-85
2022/01/31 03:11:41;;;;;;;17.98;3.28;;;;;;;;;;5102250;27;20169;-86
2022/01/31 03:14:07;;;;;;;23.73;4.88;;;;;;;;;;5084279;28;20039;-85
2022/01/31 03:16:35;;;;;;;24.58;4.10;;;;;;;;;;5097003;27;20130;-85
2022/01/31 03:19:01;;;;;;;20.30;3.47;;;;;;;;;;5098360;27;20078;-84
2022/01/31 03:21:27;;;;;;;15.70;2.90;;;;;;;;;;5100156;27;20046;-84
2022/01/31 03:23:53;;;;;;;10.63;2.05;;;;;;;;;;5074062;27;20129;-83
2022/01/31 03:26:19;;;;;;;12.13;1.92;;;;;;;;;;5075981;28;20046;-84
2022/01/31 03:28:45;;;;;;;18.80;2.55;;;;;;;;;;5102441;27;20047;-83
2022/01/31 03:31:13;;;;;;;19.35;3.85;;;;;;;;;;5101294;27;20461;-84
2022/01/31 03:33:39;;;;;;;20.25;2.60;;;;;;;;;;5098978;27;20117;-84
2022/01/31 03:36:06;;;;;;;15.93;2.38;;;;;;;;;;5096460;28;20050;-84
2022/01/31 03:38:32;;;;;;;22.17;3.10;;;;;;;;;;5088760;28;20051;-83
2022/01/31 03:40:58;;;;;;;20.23;2.97;;;;;;;;;;5092649;28;20097;-83
2022/01/31 03:43:25;;;;;;;16.35;3.65;;;;;;;;;;5097381;28;20106;-83
2022/01/31 03:45:51;;;;;;;15.68;2.42;;;;;;;;;;5089530;28;20051;-84
2022/01/31 03:48:17;;;;;;;9.10;1.92;;;;;;;;;;5082430;28;20043;-84
2022/01/31 03:50:43;;;;;;;6.68;1.20;;;;;;;;;;5090605;28;20040;-83
2022/01/31 03:53:09;;;;;;;6.53;0.85;;;;;;;;;;5079481;28;20515;-83
2022/01/31 03:55:36;;;;;;;12.88;1.55;;;;;;;;;;5088641;28;20035;-85
2022/01/31 03:58:02;;;;;;;11.40;1.88;;;;;;;;;;5075330;28;20040;-82
2022/01/31 04:00:29;;;;;;;28.35;4.07;;;;;;;;;;5095472;28;20524;-83
2022/01/31 04:02:55;;;;;;;16.73;3.42;;;;;;;;;;5088760;28;20488;-82
2022/01/31 04:05:21;;;;;;;19.35;3.10;;;;;;;;;;5084152;28;20052;-83
2022/01/31 04:07:48;;;;;;;23.33;2.95;;;;;;;;;;5090799;28;20046;-81
2022/01/31 04:10:14;;;;;;;12.80;1.80;;;;;;;;;;5094837;28;20414;-82
2022/01/31 04:12:40;;;;;;;15.27;1.98;;;;;;;;;;5079573;28;20179;-82
2022/01/31 04:15:07;;;;;;;18.13;2.42;;;;;;;;;;5095493;28;20162;-82
2022/01/31 04:17:33;;;;;;;16.40;3.28;;;;;;;;;;5088993;28;20375;-82
2022/01/31 04:20:00;;;;;;;17.80;2.92;;;;;;;;;;5087440;28;20036;-82
2022/01/31 04:22:29;;;;;;;23.52;3.05;;;;;;;;;;5086438;28;20714;-82
2022/01/31 04:25:00;;;;;;;21.05;2.70;;;;;;;;;;5094549;27;20581;-82
2022/01/31 04:27:31;;;;;;;28.27;3.25;;;;;;;;;;5103644;27;20039;-82
2022/01/31 04:29:58;;;;;;;9.02;2.15;;;;;;;;;;5109590;27;20046;-84
2022/01/31 04:32:24;;;;;;;15.88;2.60;;;;;;;;;;5096384;27;20040;-83
2022/01/31 04:34:50;;;;;;;7.35;1.30;;;;;;;;;;5096022;28;20083;-83
2022/01/31 04:37:16;;;;;;;13.13;2.75;;;;;;;;;;5102309;27;20055;-83
2022/01/31 04:39:43;;;;;;;16.77;2.30;;;;;;;;;;5076993;28;20048;-84
2022/01/31 04:42:09;;;;;;;13.13;1.55;;;;;;;;;;5077674;28;20039;-84
2022/01/31 04:44:36;;;;;;;14.98;2.40;;;;;;;;;;5071440;28;20183;-84
2022/01/31 04:47:02;;;;;;;14.45;2.08;;;;;;;;;;5079564;28;20043;-83
2022/01/31 04:49:28;;;;;;;16.65;1.92;;;;;;;;;;5084757;28;20032;-83
2022/01/31 04:51:54;;;;;;;11.98;1.50;;;;;;;;;;5102879;28;20479;-82
2022/01/31 04:54:20;;;;;;;15.77;2.55;;;;;;;;;;5095171;28;20078;-83
2022/01/31 04:56:47;;;;;;;15.02;2.83;;;;;;;;;;5082790;28;20039;-83
2022/01/31 04:59:13;;;;;;;16.23;2.70;;;;;;;;;;5081442;28;20407;-84
2022/01/31 05:01:42;;;;;;;10.02;2.20;;;;;;;;;;5085839;27;20039;-84
2022/01/31 05:04:08;;;;;;;14.20;1.75;;;;;;;;;;5082852;27;20078;-83
2022/01/31 05:06:38;;;;;;;14.35;2.05;;;;;;;;;;5100823;27;20556;-84
2022/01/31 05:09:04;;;;;;;9.05;1.92;;;;;;;;;;5076077;28;20079;-84
2022/01/31 05:11:31;;;;;;;7.80;1.67;;;;;;;;;;5100897;27;20070;-85
2022/01/31 05:13:57;;;;;;;6.72;1.70;;;;;;;;;;5100061;27;20091;-84
2022/01/31 05:16:23;;;;;;;16.95;1.67;;;;;;;;;;5084161;28;20036;-84
2022/01/31 05:18:49;;;;;;;12.43;2.28;;;;;;;;;;5098137;27;20638;-85
2022/01/31 05:21:16;;;;;;;16.17;2.05;;;;;;;;;;5117746;27;20047;-85
2022/01/31 05:23:42;;;;;;;15.95;2.22;;;;;;;;;;5093723;28;20053;-83
2022/01/31 05:26:08;;;;;;;9.60;1.75;;;;;;;;;;5099848;27;20058;-84
2022/01/31 05:28:35;;;;;;;25.45;2.30;;;;;;;;;;5081457;28;20040;-83
2022/01/31 05:31:10;;;;;;;15.93;2.40;;;;;;;;;;5103245;27;20053;-83
2022/01/31 05:33:36;;;;;;;9.88;2.30;;;;;;;;;;5096376;27;20426;-84
2022/01/31 05:36:02;;;;;;;15.75;2.90;;;;;;;;;;5077899;27;20039;-84
2022/01/31 05:38:34;;;;;;;18.05;1.85;;;;;;;;;;5104502;27;20125;-84
2022/01/31 05:41:05;;;;;;;26.65;2.78;;;;;;;;;;5098974;28;20043;-84
2022/01/31 05:43:31;;;;;;;15.25;2.25;;;;;;;;;;5097806;27;20039;-83
2022/01/31 05:45:57;;;;;;;9.93;1.60;;;;;;;;;;5100591;27;20039;-84
2022/01/31 05:48:23;;;;;;;16.52;2.92;;;;;;;;;;5104572;27;20043;-84
2022/01/31 05:50:49;;;;;;;9.80;1.65;;;;;;;;;;5099298;27;20157;-84
2022/01/31 05:53:15;;;;;;;16.45;2.13;;;;;;;;;;5103138;27;20571;-83
2022/01/31 05:55:42;;;;;;;10.02;1.63;;;;;;;;;;5095385;28;20153;-86
2022/01/31 05:58:09;;;;;;;14.82;1.88;;;;;;;;;;5091570;27;20044;-85
2022/01/31 06:00:37;;;;;;;10.88;1.35;;;;;;;;;;5095505;28;20455;-85
2022/01/31 06:03:03;;;;;;;7.28;1.65;;;;;;;;;;5105076;27;20172;-85
2022/01/31 06:05:30;;;;;;;12.15;1.60;;;;;;;;;;5100933;27;20651;-84
2022/01/31 06:07:56;;;;;;;21.23;2.47;;;;;;;;;;5097285;27;20570;-85
2022/01/31 06:10:23;;;;;;;13.63;2.00;;;;;;;;;;5075002;28;20078;-85
2022/01/31 06:12:51;;;;;;;22.00;3.42;;;;;;;;;;5096191;27;20046;-84
2022/01/31 06:15:18;;;;;;;21.40;2.90;;;;;;;;;;5102005;27;20528;-85
2022/01/31 06:17:44;;;;;;;17.88;2.05;;;;;;;;;;5098733;27;20047;-85
2022/01/31 06:20:11;;;;;;;12.02;2.45;;;;;;;;;;5101871;27;20085;-85
2022/01/31 06:22:44;;;;;;;15.20;1.55;;;;;;;;;;5078828;27;20122;-86
2022/01/31 06:25:12;;;;;;;12.75;2.03;;;;;;;;;;5090579;27;20079;-85
2022/01/31 06:27:38;;;;;;;13.73;1.70;;;;;;;;;;5097224;27;20514;-86
2022/01/31 06:30:04;;;;;;;10.10;1.02;;;;;;;;;;5094765;27;20043;-85
2022/01/31 06:32:30;;;;;;;8.68;1.45;;;;;;;;;;5097984;27;20061;-85
2022/01/31 06:34:57;;;;;;;15.40;1.90;;;;;;;;;;5097820;27;20535;-86
2022/01/31 06:37:23;;;;;;;11.55;2.30;;;;;;;;;;5102721;27;20504;-85
2022/01/31 06:39:49;;;;;;;19.45;4.22;;;;;;;;;;5081671;27;20453;-85
2022/01/31 06:42:15;;;;;;;8.90;1.67;;;;;;;;;;5078212;27;20050;-85
2022/01/31 06:44:42;;;;;;;16.67;2.47;;;;;;;;;;5081575;27;20046;-86
2022/01/31 06:47:08;;;;;;;21.75;3.17;;;;;;;;;;5097882;27;20122;-86
2022/01/31 06:49:34;;;;;;;14.60;2.17;;;;;;;;;;5105679;27;20123;-86
2022/01/31 06:52:00;;;;;;;17.90;2.50;;;;;;;;;;5102309;27;20130;-86
2022/01/31 06:54:27;;;;;;;18.48;2.65;;;;;;;;;;5116235;27;20038;-86
2022/01/31 06:56:56;;;;;;;12.85;1.80;;;;;;;;;;5081817;27;20129;-85
2022/01/31 06:59:22;;;;;;;17.05;2.38;;;;;;;;;;5097377;28;20064;-85
2022/01/31 07:01:48;;;;;;;22.90;3.03;;;;;;;;;;5101855;27;20035;-86
2022/01/31 07:04:15;;;;;;;23.38;3.38;;;;;;;;;;5092719;28;20055;-84
2022/01/31 07:06:41;;;;;;;22.70;2.85;;;;;;;;;;5090080;28;20074;-83
2022/01/31 07:09:07;;;;;;;23.35;3.42;;;;;;;;;;5096637;28;20424;-84
2022/01/31 07:11:39;;;;;;;17.15;2.97;;;;;;;;;;5091581;28;20038;-84
2022/01/31 07:14:24;;;;;;;29.52;4.63;;;;;;;;;;5078996;28;20047;-83
2022/01/31 07:16:50;;;;;;;18.75;3.80;;;;;;;;;;5084768;28;20450;-86
2022/01/31 07:19:18;;;;;;;21.38;4.32;;;;;;;;;;5088715;28;20046;-85
2022/01/31 07:21:49;;;;;;;22.05;3.55;;;;;;;;;;5071242;28;20039;-83
2022/01/31 07:26:43;;;;;;;27.23;4.60;;;;;;;;;;5090478;28;20413;-83
2022/01/31 07:29:09;;;;;;;26.38;3.50;;;;;;;;;;5075624;28;20093;-85
2022/01/31 07:31:36;;;;;;;20.15;3.78;;;;;;;;;;5070916;28;20058;-83
2022/01/31 07:34:02;;;;;;;17.02;3.47;;;;;;;;;;5081897;28;20054;-83
2022/01/31 07:36:29;;;;;;;15.88;3.30;;;;;;;;;;5092153;27;20042;-83
2022/01/31 07:38:56;;;;;;;15.32;3.70;;;;;;;;;;5089243;28;20206;-83
2022/01/31 07:41:23;;;;;;;17.23;2.03;;;;;;;;;;5086976;28;20040;-84
2022/01/31 07:43:49;;;;;;;12.70;2.20;;;;;;;;;;5080119;28;20580;-83
2022/01/31 07:46:16;;;;;;;12.18;1.80;;;;;;;;;;5095013;28;20035;-83
2022/01/31 07:48:42;;;;;;;11.30;1.92;;;;;;;;;;5093881;28;20039;-83
2022/01/31 07:51:09;;;;;;;16.23;2.90;;;;;;;;;;5091373;28;20088;-83
2022/01/31 07:53:38;;;;;;;12.80;1.02;;;;;;;;;;5099933;28;20078;-83
2022/01/31 07:56:07;;;;;;;7.82;1.40;;;;;;;;;;5102008;28;20639;-83
2022/01/31 07:58:34;;;;;;;6.65;1.40;;;;;;;;;;5094316;28;20051;-85
2022/01/31 08:01:00;;;;;;;10.60;1.27;;;;;;;;;;5090539;28;20039;-84
2022/01/31 08:03:26;;;;;;;16.13;2.97;;;;;;;;;;5086207;28;20093;-90
2022/01/31 08:05:52;;;;;;;11.13;1.88;;;;;;;;;;5087681;28;20036;-80
2022/01/31 08:08:19;;;;;;;10.40;1.52;;;;;;;;;;5107634;28;20040;-86
2022/01/31 08:10:45;;;;;;;12.95;1.75;;;;;;;;;;5080948;28;20031;-84
2022/01/31 08:13:11;;;;;;;14.38;2.15;;;;;;;;;;5098111;27;20047;-83
2022/01/31 08:15:49;;;;;;;13.20;2.10;;;;;;;;;;5104806;28;20089;-82
2022/01/31 08:18:16;;;;;;;15.27;1.98;;;;;;;;;;5102648;28;20058;-84
2022/01/31 08:20:42;;;;;;;13.23;2.22;;;;;;;;;;5102157;28;20104;-83
2022/01/31 08:23:09;;;;;;;10.50;2.10;;;;;;;;;;5097608;28;20480;-83
2022/01/31 08:25:37;;;;;;;12.38;2.22;;;;;;;;;;5103791;28;20046;-83
2022/01/31 08:28:09;;;;;;;15.45;1.88;;;;;;;;;;5103821;28;20086;-81
2022/01/31 08:30:44;;;;;;;6.43;1.35;;;;;;;;;;5090708;27;20044;-81
2022/01/31 08:33:25;;;;;;;10.25;1.80;;;;;;;;;;5097069;28;20040;-84
2022/01/31 08:35:52;;;;;;;13.32;1.67;;;;;;;;;;5096736;28;20044;-83
2022/01/31 08:38:18;;;;;;;8.50;2.25;;;;;;;;;;5097346;27;20403;-83
2022/01/31 08:40:45;;;;;;;8.93;1.88;;;;;;;;;;5096715;28;20136;-84
2022/01/31 08:43:12;;;;;;;12.10;1.42;;;;;;;;;;5084754;28;20495;-84
2022/01/31 08:45:38;;;;;;;10.40;1.35;;;;;;;;;;5095522;28;20358;-84
2022/01/31 08:48:05;;;;;;;10.27;1.48;;;;;;;;;;5092202;28;20687;-82
2022/01/31 08:50:31;;;;;;;7.65;1.50;;;;;;;;;;5094411;28;20404;-82
2022/01/31 08:52:58;;;;;;;11.40;1.60;;;;;;;;;;5084627;28;20053;-82
2022/01/31 08:55:25;;;;;;;6.10;1.15;;;;;;;;;;5102974;28;20137;-82
2022/01/31 08:57:55;;;;;;;9.90;2.10;;;6.20;99.90;;;;;;5079780;28;20056;-82
2022/01/31 09:00:32;;;;;;;14.85;1.67;;;;;;;;;;5097093;28;20074;-82
2022/01/31 09:03:17;;;;;;;6.22;1.00;;;;;;;;;;5082359;28;20092;-81
2022/01/31 09:05:43;;;;;;;9.38;1.35;;;;;;;;;;5097666;28;20043;-81
2022/01/31 09:08:09;;;;;;;15.05;2.03;;;;;;;;;;5089847;28;20047;-81
2022/01/31 09:10:35;;;;;;;14.05;1.65;;;;;;;;;;5095009;28;20598;-81
2022/01/31 09:13:02;;;;;;;14.73;1.30;;;;;;;;;;5095960;27;20048;-82
2022/01/31 09:15:28;;;;;;;8.43;1.13;;;;;;;;;;5088117;27;20496;-81
2022/01/31 09:17:54;;;;;;;6.18;1.17;;;;;;;;;;5081085;28;20586;-81
2022/01/31 09:20:20;;;;;;;10.77;1.75;;;;;;;;;;5102997;28;20476;-81
2022/01/31 09:22:46;;;;;;;7.70;1.45;;;;;;;;;;5098959;28;20413;-81
2022/01/31 09:25:14;;;;;;;14.07;1.75;;;;;;;;;;5100574;28;20526;-81
2022/01/31 09:27:40;;;;;;;9.52;1.48;;;;;;;;;;5079457;28;20047;-81
2022/01/31 09:30:08;;;;;;;10.02;1.63;;;;;;;;;;5094639;28;20043;-81
2022/01/31 09:32:34;;;;;;;12.73;1.65;;;;;;;;;;5094318;28;20455;-81
2022/01/31 09:35:00;;;;;;;11.60;1.73;;;;;;;;;;5097762;28;20032;-81
2022/01/31 09:37:26;;;;;;;18.85;2.15;;;;;;;;;;5085008;28;20042;-82
2022/01/31 09:39:54;;;;;;;9.77;1.65;;;;;;;;;;5089145;28;20044;-82
2022/01/31 09:42:30;;;;;;;11.00;1.85;;;;;;;;;;5096488;28;20035;-81
2022/01/31 09:50:11;;;;;;;12.93;2.30;;;;;;;;;;5097114;28;20031;-81
2022/01/31 09:52:38;;;;;;;9.50;1.80;;;;;;;;;;5088786;28;20044;-81
2022/01/31 09:55:04;;;;;;;17.35;3.28;;;;;;;;;;5089158;28;20043;-81
2022/01/31 09:57:30;;;;;;;14.45;2.10;;;;;;;;;;5101379;28;20428;-80
2022/01/31 09:59:57;;;;;;;7.78;1.83;;;;;;;;;;5075206;28;20130;-81
2022/01/31 10:02:23;;;;;;;7.75;1.75;;;;;;;;;;5100745;27;20039;-81
2022/01/31 10:04:49;;;;;;;15.82;2.78;;;;;;;;;;5079458;27;20047;-81
2022/01/31 10:07:16;;;;;;;14.55;2.67;;;;;;;;;;5088398;27;20042;-81
2022/01/31 10:09:43;;;;;;;11.73;2.17;;;;;;;;;;5115208;27;20409;-81
2022/01/31 10:12:20;;;;;;;33.17;3.60;;;;;;;;;;5116084;27;20043;-82
2022/01/31 10:17:32;;;;;;;13.98;2.40;;;;;;;;;;5095295;27;20450;-83
2022/01/31 10:20:00;;;;;;;16.17;1.77;;;;;;;;;;5091233;27;20051;-81
2022/01/31 10:22:28;;;;;;;13.70;1.52;;;;;;;;;;5088663;27;20050;-82
2022/01/31 10:24:56;;;;;;;9.85;1.60;;;;;;;;;;5094708;28;20244;-83
2022/01/31 10:27:23;;;;;;;8.30;2.03;;;;;;;;;;5097742;27;20122;-81
2022/01/31 10:29:51;;;;;;;9.63;1.50;;;;;;;;;;5096583;27;20065;-84
2022/01/31 10:32:24;;;;;;;7.50;1.05;;;;;;;;;;5082663;27;20035;-82
2022/01/31 10:34:53;;;;;;;10.73;2.55;;;;;;;;;;5076448;28;20031;-82
2022/01/31 10:37:22;;;;;;;9.20;1.25;;;;;;;;;;5084610;27;20031;-83
2022/01/31 10:45:40;;;;;;;5.07;1.23;;;;;;;;;;5100070;27;20362;-84
2022/01/31 10:53:43;;;;;;;6.18;1.27;;;;;;;;;;5096547;28;20530;-81
2022/01/31 10:56:10;;;;;;;12.70;1.75;;;;;;;;;;5096663;27;20046;-81
2022/01/31 10:58:52;;;;;;;6.78;1.23;;;;;;;;;;5081272;27;20175;-83
2022/01/31 11:01:19;;;;;;;16.08;2.28;;;;;;;;;;5078243;28;20430;-81
2022/01/31 11:03:46;;;;;;;10.50;1.02;;;;;;;;;;5095742;27;20071;-82
2022/01/31 11:06:14;;;;;;;10.77;1.63;;;;;;;;;;5096609;27;20706;-82
2022/01/31 11:08:40;;;;;;;12.10;1.73;;;;;;;;;;5098187;27;20127;-82
2022/01/31 11:11:07;;;;;;;12.70;2.08;;;10.20;99.90;;;;;;5100829;27;20463;-82
2022/01/31 11:13:34;;;;;;;11.90;1.88;;;;;;;;;;5096506;27;20039;-82
2022/01/31 11:16:00;;;;;;;11.85;1.73;;;;;;;;;;5100267;27;20035;-82
2022/01/31 11:18:30;;;;;;;14.40;2.55;;;;;;;;;;5101723;27;20882;-82
2022/01/31 11:20:59;;;;;;;7.72;1.50;;;;;;;;;;5095205;28;20039;-82
2022/01/31 11:23:28;;;;;;;14.88;2.20;;;8.90;99.90;;;;;;5099099;27;20051;-82
2022/01/31 11:25:56;;;;;;;10.73;1.75;;;;;;;;;;5082550;28;20047;-82
2022/01/31 11:28:23;;;;;;;16.67;2.50;;;;;;;;;;5095910;27;20122;-82
2022/01/31 11:30:51;;;;;;;10.18;1.45;;;;;;;;;;5089548;28;20489;-82
2022/01/31 11:33:19;;;;;;;11.07;1.88;;;;;;;;;;5093616;27;20046;-81
2022/01/31 11:35:46;;;;;;;10.50;1.70;;;;;;;;;;5090138;27;20575;-81
2022/01/31 11:38:13;;;;;;;13.25;1.92;;;;;;;;;;5099404;27;20078;-81
2022/01/31 11:40:39;;;;;;;11.90;2.70;;;;;;;;;;5098607;27;20356;-81
2022/01/31 11:43:05;;;;;;;10.23;1.42;;;;;;;;;;5096233;28;20070;-81
2022/01/31 11:45:34;;;;;;;13.60;1.90;;;;;;;;;;5089533;28;20039;-81
2022/01/31 11:48:11;;;;;;;10.73;1.52;;;10.50;99.90;;;;;;5107698;28;20487;-82
2022/01/31 11:50:48;;;;;;;8.25;1.40;;;;;;;;;;5093855;28;20464;-81
2022/01/31 11:53:14;;;;;;;22.05;2.95;;;;;;;;;;5091238;28;20404;-81
2022/01/31 11:55:42;;;;;;;13.00;2.10;;;;;;;;;;5076703;28;20139;-81
2022/01/31 11:58:09;;;;;;;11.15;2.30;;;;;;;;;;5093720;28;20043;-82
2022/01/31 12:00:36;;;;;;;12.98;2.25;;;;;;;;;;5115869;28;20539;-82
2022/01/31 12:03:04;;;;;;;14.75;2.13;;;;;;;;;;5085969;28;20068;-81
2022/01/31 12:05:32;;;;;;;19.95;2.42;;;;;;;;;;5095071;28;20040;-81
2022/01/31 12:08:01;;;;;;;15.43;2.10;;;;;;;;;;5077672;28;20052;-81
2022/01/31 12:10:34;;;;;;;17.08;2.63;;;;;;;;;;5092048;28;20581;-81
2022/01/31 12:13:25;;;;;;;9.13;1.58;;;;;;;;;;5098422;28;20092;-82
2022/01/31 12:16:03;;;;;;;16.52;2.95;;;;;;;;;;5087320;28;20051;-82
2022/01/31 12:24:22;;;;;;;19.70;2.72;;;;;;;;;;5099280;28;20052;-81
2022/01/31 12:26:48;;;;;;;21.60;3.47;;;;;;;;;;5088378;28;20036;-82
2022/01/31 12:29:16;;;;;;;16.95;3.72;;;;;;;;;;5095401;28;20272;-82
2022/01/31 12:31:43;;;;;;;21.75;3.40;;;;;;;;;;5091055;28;20101;-82
2022/01/31 12:34:11;;;;;;;22.30;3.25;;;;;;;;;;5096778;28;20092;-82
2022/01/31 12:36:37;;;;;;;24.52;4.05;;;;;;;;;;5102056;28;20027;-80
2022/01/31 12:39:04;;;;;;;18.75;3.38;;;;;;;;;;5106557;28;20081;-82
2022/01/31 12:41:32;;;;;;;13.60;2.95;;;8.10;99.90;;;;;;5100151;28;20121;-82
2022/01/31 12:44:38;;;;;;;20.80;4.40;;;;;;;;;;5096947;28;20101;-82
2022/01/31 12:47:04;;;;;;;;;;;;;;;;;;5019912;28;20129;-82
2022/01/31 12:49:30;;;;;;;22.90;4.22;;;;;;;;;;5014229;28;19974;-82
2022/01/31 12:52:06;;;;;;;17.30;4.80;;;;;;;;;;5020054;28;20056;-82
2022/01/31 12:54:33;;;;;;;25.73;4.40;;;;;;;;;;5003154;28;20071;-81
2022/01/31 12:57:04;;;;;;;34.33;5.13;;;;;;;;;;5019438;28;20037;-81
2022/01/31 12:59:30;;;;;;;23.80;4.97;;;;;;;;;;5022206;28;20075;-82
2022/01/31 13:01:58;;;;;;;29.90;5.10;;;;;;;;;;5019799;28;20070;-81
2022/01/31 13:04:27;;;;;;;26.45;4.38;;;;;;;;;;5011140;28;20081;-81
2022/01/31 13:06:54;;;;;;;15.13;3.85;;;;;;;;;;5022565;28;20040;-81
2022/01/31 13:09:22;;;;;;;24.67;5.63;;;;;;;;;;5029464;28;20135;-81
2022/01/31 13:11:58;;;;;;;25.13;4.05;;;;;;;;;;5021798;28;20497;-81
2022/01/31 13:14:25;;;;;;;22.77;4.50;;;;;;;;;;5022056;28;20048;-81
2022/01/31 13:17:00;;;;;;;27.30;4.00;;;;;;;;;;5007810;28;20450;-82
2022/01/31 13:19:28;;;;;;;21.50;3.70;;;;;;;;;;5082637;28;20043;-82
2022/01/31 13:21:56;;;;;;;22.75;4.60;;;;;;;;;;5092681;28;20087;-82
2022/01/31 13:24:31;;;;;;;21.10;4.07;;;;;;;;;;5095353;28;20047;-82
2022/01/31 13:26:59;;;;;;;18.35;3.38;;;;;;;;;;5074543;28;20086;-82
2022/01/31 13:29:28;;;;;;;26.40;4.30;;;;;;;;;;5096069;28;20059;-82
2022/01/31 13:31:55;;;;;;;17.15;2.90;;;;;;;;;;5069741;28;20127;-82
2022/01/31 13:34:34;;;;;;;19.27;2.90;;;;;;;;;;5090612;28;20032;-82
2022/01/31 13:37:00;;;;;;;29.33;3.75;;;;;;;;;;5098853;27;20039;-82
2022/01/31 13:39:26;;;;;;;23.58;3.20;;;;;;;;;;5089335;28;20158;-82
2022/01/31 13:41:53;;;;;;;16.52;3.22;;;;;;;;;;5076082;28;20048;-82
2022/01/31 13:44:21;;;;;;;15.35;3.75;;;;;;;;;;5096062;28;20612;-81
2022/01/31 13:46:51;;;;;;;24.25;4.63;;;;;;;;;;5091894;28;20040;-81
2022/01/31 13:49:23;;;;;;;14.15;2.97;;;;;;;;;;5091224;28;20173;-81
2022/01/31 13:51:51;;;;;;;10.15;2.83;;;;;;;;;;5074426;28;20050;-80
2022/01/31 13:54:18;;;;;;;14.85;2.33;;;;;;;;;;5097731;28;20572;-83
2022/01/31 13:56:46;;;;;;;12.73;2.45;;;;;;;;;;5092893;28;20036;-81
2022/01/31 13:59:15;;;;;;;11.07;1.95;;;;;;;;;;5089821;28;20055;-82
2022/01/31 14:01:41;;;;;;;10.00;1.90;;;;;;;;;;5100089;28;20048;-81
2022/01/31 14:04:09;;;;;;;12.02;2.47;;;;;;;;;;5096549;28;20144;-81
2022/01/31 14:06:36;;;;;;;13.80;2.03;;;;;;;;;;5089574;28;20070;-81
2022/01/31 14:09:06;;;;;;;10.07;2.10;;;;;;;;;;5072964;28;20416;-80
2022/01/31 14:11:37;;;;;;;11.02;1.88;;;;;;;;;;5087533;28;20131;-82
2022/01/31 14:14:03;;;;;;;8.25;1.60;;;;;;;;;;5095388;27;20043;-81
2022/01/31 14:16:31;;;;;;;10.82;1.83;;;;;;;;;;5091869;28;20588;-82
2022/01/31 14:19:07;;;;;;;10.38;2.78;;;;;;;;;;5094982;28;20149;-81
2022/01/31 14:21:37;;;;;;;13.15;2.05;;;;;;;;;;5095236;28;20039;-82
2022/01/31 14:24:04;;;;;;;11.95;2.22;;;;;;;;;;5080090;28;20044;-85
2022/01/31 14:26:40;;;;;;;8.25;1.30;;;;;;;;;;5091602;28;20039;-84
2022/01/31 14:29:10;;;;;;;11.13;1.95;;;;;;;;;;5092036;28;20036;-82
2022/01/31 14:31:38;;;;;;;14.38;2.03;;;;;;;;;;5088982;28;20110;-82
2022/01/31 14:34:09;;;;;;;6.70;1.35;;;;;;;;;;5073433;28;20492;-81
2022/01/31 14:36:39;;;;;;;8.77;1.75;;;;;;;;;;5092229;28;20032;-82
2022/01/31 14:47:19;;;;;;;10.98;1.30;;;;;;;;;;5088439;28;20043;-82
2022/01/31 14:49:45;;;;;;;;;;;;;;;;;;5074180;28;20067;-81
2022/01/31 14:52:11;;;;;;;12.35;2.42;;;;;;;;;;5091873;28;19974;-81
2022/01/31 14:54:39;;;;;;;8.98;1.90;;;;;;;;;;5091254;28;20046;-82
2022/01/31 14:57:05;;;;;;;9.25;1.38;;;;;;;;;;5091897;28;20071;-80
2022/01/31 14:59:31;;;;;;;6.65;1.23;;;;;;;;;;5078989;28;20047;-84
2022/01/31 15:01:58;;;;;;;11.45;1.95;;;;;;;;;;5088572;28;20043;-82
2022/01/31 15:04:27;;;;;;;8.10;1.25;;;;;;;;;;5088297;28;20066;-83
2022/01/31 15:06:53;;;;;;;5.65;0.73;;;;;;;;;;5099414;28;20126;-83
2022/01/31 15:09:20;;;;;;;8.13;1.55;;;;;;;;;;5083260;28;20048;-82
2022/01/31 15:11:47;;;;;;;4.55;1.25;;;;;;;;;;5079645;28;20089;-84